ADDS METAR Data INFO
IDs: Format: Raw Decoded Include TAF

Data at: 1322 UTC 11 Dec 2017

KLHB 111315Z AUTO 00000KT 10SM CLR 00/00 A3033 RMK AO2 T10031005
KLHB 111255Z AUTO 00000KT 10SM CLR 00/00 A3033 RMK AO2 T10051005
KLHB 111235Z AUTO 00000KT 10SM CLR 00/00 A3033 RMK AO2 T10051005
KLHB 111215Z AUTO 00000KT 10SM CLR 00/M01 A3033 RMK AO2 T10051007
KLHB 111155Z AUTO 00000KT 10SM CLR M01/M01 A3033 RMK AO2 T10061007 10017 21008
KLHB 111135Z AUTO 00000KT 10SM CLR 00/M01 A3032 RMK AO2 T10051006
KLHB 111115Z AUTO 00000KT 10SM CLR 00/00 A3032 RMK AO2 T10041005
KLHB 111055Z AUTO 00000KT 10SM CLR 00/00 A3032 RMK AO2 T10021004
KLHB 111035Z AUTO 00000KT 10SM CLR 00/M01 A3032 RMK AO2 T10031007
KLHB 111015Z AUTO 00000KT 10SM CLR 00/00 A3032 RMK AO2 T10021004
KLHB 110955Z AUTO 00000KT 10SM CLR 00/00 A3033 RMK AO2 T00001002
KLHB 110935Z AUTO 00000KT 10SM CLR 00/00 A3033 RMK AO2 T00001002
KLHB 110915Z AUTO 00000KT 10SM CLR 00/00 A3033 RMK AO2 T00021001
KLHB 110855Z AUTO 00000KT 10SM CLR 00/00 A3033 RMK AO2 T00030000
KLHB 110835Z AUTO 00000KT 10SM CLR 00/00 A3032 RMK AO2 T00020000
KLHB 110815Z AUTO 00000KT 10SM CLR 01/00 A3033 RMK AO2 T00060000
KLHB 110755Z AUTO 00000KT 10SM CLR 00/00 A3033 RMK AO2 T00021001
KLHB 110735Z AUTO 00000KT 10SM CLR 01/00 A3033 RMK AO2 T00100003
KLHB 110715Z AUTO 00000KT 10SM CLR 01/00 A3034 RMK AO2 T00080000
KLHB 110655Z AUTO 00000KT 10SM CLR 02/01 A3034 RMK AO2 T00150005
KLHB 110635Z AUTO 00000KT 10SM CLR 01/00 A3034 RMK AO2 T00120001
KLHB 110615Z AUTO 00000KT 10SM CLR 01/00 A3034 RMK AO2 T00130002
KLHB 110555Z AUTO 00000KT 10SM CLR 02/00 A3035 RMK AO2 T00170003 10127 20017 401911024
KLHB 110535Z AUTO 00000KT 10SM CLR 02/00 A3035 RMK AO2 T00240003
KLHB 110515Z AUTO 10003KT 10SM CLR 03/01 A3035 RMK AO2 T00310010
KLHB 110455Z AUTO 00000KT 10SM CLR 03/01 A3036 RMK AO2 T00300012
KLHB 110435Z AUTO 00000KT 10SM CLR 03/01 A3036 RMK AO2 T00320010
KLHB 110415Z AUTO 00000KT 10SM CLR 04/01 A3037 RMK AO2 T00370007
KLHB 110355Z AUTO 00000KT 10SM CLR 03/01 A3036 RMK AO2 T00280007
KLHB 110335Z AUTO 00000KT 10SM CLR 04/01 A3037 RMK AO2 T00370014
KLHB 110315Z AUTO 00000KT 10SM CLR 04/01 A3036 RMK AO2 T00370011
KLHB 110255Z AUTO 00000KT 10SM CLR 05/01 A3036 RMK AO2 T00470013
KLHB 110235Z AUTO 00000KT 10SM CLR 05/01 A3036 RMK AO2 T00480011
KLHB 110215Z AUTO 00000KT 10SM CLR 05/01 A3036 RMK AO2 T00500010
KLHB 110155Z AUTO 00000KT 10SM CLR 06/01 A3036 RMK AO2 T00600010
KLHB 110135Z AUTO 00000KT 10SM CLR 06/01 A3036 RMK AO2 T00630008
KLHB 110115Z AUTO 00000KT 10SM CLR 08/00 A3036 RMK AO2 T00750002
KLHB 110055Z AUTO 00000KT 10SM CLR 09/00 A3037 RMK AO2 T00940000
KLHB 110035Z AUTO 00000KT 10SM CLR 11/01 A3036 RMK AO2 T01080009
KLHB 110015Z AUTO 00000KT 10SM CLR 12/00 A3036 RMK AO2 T01240004
KLHB 102355Z AUTO 00000KT 10SM CLR 13/00 A3036 RMK AO2 T01270000 10191 20127
KLHB 102335Z AUTO 00000KT 10SM CLR 14/00 A3036 RMK AO2 T01410000
KLHB 102315Z AUTO 20004KT 10SM CLR 16/00 A3036 RMK AO2 T01591001
KLHB 102255Z AUTO 20005KT 10SM CLR 17/00 A3036 RMK AO2 T01711004
KLHB 102235Z AUTO 21005KT 10SM CLR 18/M01 A3036 RMK AO2 T01821015
KLHB 102215Z AUTO 22005KT 10SM CLR 19/M02 A3036 RMK AO2 T01871018
KLHB 102155Z AUTO 24004KT 10SM CLR 19/M02 A3036 RMK AO2 T01891023
KLHB 102135Z AUTO 25006KT 10SM CLR 19/M02 A3037 RMK AO2 T01891023
KLHB 102115Z AUTO 27005KT 10SM CLR 19/M02 A3037 RMK AO2 T01881019
KLHB 102055Z AUTO 25005KT 10SM CLR 19/M02 A3037 RMK AO2 T01871021
KLHB 102035Z AUTO 27005KT 10SM CLR 18/M02 A3037 RMK AO2 T01831019
KLHB 102015Z AUTO 24003KT 10SM CLR 18/M02 A3037 RMK AO2 T01831016
KLHB 101955Z AUTO 25007KT 10SM CLR 18/M02 A3038 RMK AO2 T01811018
KLHB 101935Z AUTO 27006KT 10SM CLR 18/M02 A3039 RMK AO2 T01761024
KLHB 101915Z AUTO 26006KT 10SM CLR 17/M01 A3040 RMK AO2 T01741015
KLHB 101855Z AUTO 25005KT 10SM CLR 17/M01 A3041 RMK AO2 T01681015
KLHB 101835Z AUTO 27005KT 10SM CLR 16/M01 A3043 RMK AO2 T01601009
KLHB 101815Z AUTO 24005KT 10SM CLR 16/00 A3044 RMK AO2 T01560000
KLHB 101755Z AUTO 22003KT 10SM CLR 15/00 A3046 RMK AO2 T01500000 10150 21023
KLHB 101735Z AUTO 26006KT 10SM CLR 14/00 A3046 RMK AO2 T01410002
KLHB 101715Z AUTO 23007KT 10SM CLR 13/00 A3048 RMK AO2 T01300000
KLHB 101655Z AUTO 22005KT 10SM CLR 12/01 A3048 RMK AO2 T01180012
KLHB 101635Z AUTO 23003KT 10SM CLR 10/01 A3048 RMK AO2 T01010010
KLHB 101615Z AUTO 00000KT 10SM CLR 09/02 A3048 RMK AO2 T00910022
KLHB 101555Z AUTO 00000KT 10SM CLR 07/01 A3048 RMK AO2 T00700013
KLHB 101535Z AUTO 00000KT 10SM CLR 05/02 A3048 RMK AO2 T00540019
KLHB 101515Z AUTO 00000KT 10SM CLR 04/01 A3048 RMK AO2 T00420009
KLHB 101455Z AUTO 00000KT 10SM CLR 03/01 A3047 RMK AO2 T00280005
KLHB 101435Z AUTO 00000KT 10SM CLR 02/00 A3046 RMK AO2 T00160001
KLHB 101415Z AUTO 00000KT 10SM CLR 00/00 A3046 RMK AO2 T00011005
KLHB 101355Z AUTO 00000KT 10SM CLR M02/M02 A3045 RMK AO2 T10161019
KLHB 101335Z AUTO 00000KT 10SM CLR M02/M02 A3044 RMK AO2 T10211022
KLHB 101315Z AUTO 00000KT 10SM CLR M02/M02 A3043 RMK AO2 T10221023
KLHB 101255Z AUTO 00000KT 10SM CLR M02/M02 A3043 RMK AO2 T10171020
KLHB 101235Z AUTO 00000KT 10SM CLR M02/M02 A3043 RMK AO2 T10201022
KLHB 101215Z AUTO 00000KT 10SM CLR M02/M02 A3042 RMK AO2 T10171021
KLHB 101155Z AUTO 00000KT 10SM CLR M02/M02 A3042 RMK AO2 T10201022 10010 21024
KLHB 101135Z AUTO 00000KT 10SM CLR M02/M03 A3042 RMK AO2 T10201027
KLHB 101115Z AUTO 00000KT 10SM CLR M01/M02 A3041 RMK AO2 T10121017
KLHB 101055Z AUTO 00000KT 10SM CLR M01/M02 A3041 RMK AO2 T10151022
KLHB 101035Z AUTO 00000KT 10SM CLR M01/M01 A3041 RMK AO2 T10141015
KLHB 101015Z AUTO 00000KT 10SM CLR M02/M02 A3041 RMK AO2 T10171018
KLHB 100955Z AUTO 00000KT 10SM CLR M01/M02 A3041 RMK AO2 T10151017
KLHB 100935Z AUTO 00000KT 10SM CLR 00/M01 A3041 RMK AO2 T10051012
KLHB 100915Z AUTO 00000KT 10SM CLR M01/M01 A3042 RMK AO2 T10061009
KLHB 100855Z AUTO 00000KT 10SM CLR 00/M01 A3041 RMK AO2 T10051011
KLHB 100835Z AUTO 00000KT 10SM CLR M01/M01 A3040 RMK AO2 T10111014
KLHB 100815Z AUTO 00000KT 10SM CLR M01/M01 A3041 RMK AO2 T10071010
KLHB 100755Z AUTO 00000KT 10SM CLR 00/M01 A3041 RMK AO2 T10021010
KLHB 100735Z AUTO 00000KT 10SM CLR 00/M01 A3040 RMK AO2 T10021010
KLHB 100715Z AUTO 00000KT 10SM CLR 00/M01 A3040 RMK AO2 T10051015
KLHB 100655Z AUTO 00000KT 10SM CLR 00/M01 A3040 RMK AO2 T00021009
KLHB 100635Z AUTO 00000KT 10SM CLR 00/M02 A3040 RMK AO2 T00001016
KLHB 100615Z AUTO 00000KT 10SM CLR 01/00 A3040 RMK AO2 T00051003
KLHB 100555Z AUTO 00000KT 10SM CLR 01/M01 A3040 RMK AO2 T00101006 10113 20007 401701035
KLHB 100535Z AUTO 00000KT 10SM CLR 02/M01 A3040 RMK AO2 T00161006
KLHB 100515Z AUTO 00000KT 10SM CLR 02/00 A3040 RMK AO2 T00201005
KLHB 100455Z AUTO 00000KT 10SM CLR 02/00 A3039 RMK AO2 T00161003
KLHB 100435Z AUTO 00000KT 10SM CLR 02/00 A3039 RMK AO2 T00211004
KLHB 100420Z AUTO 00000KT 10SM CLR 02/M01 A3038 RMK AO2 T00201006
KLHB 100355Z AUTO 00000KT 10SM CLR 03/M01 A3038 RMK AO2 T00341011
KLHB 100335Z AUTO 00000KT 10SM CLR 03/00 A3037 RMK AO2 T00321003
KLHB 100315Z AUTO 00000KT 10SM CLR 04/M01 A3036 RMK AO2 T00351007
KLHB 100255Z AUTO 00000KT 10SM CLR 04/M01 A3035 RMK AO2 T00421010
KLHB 100235Z AUTO 27003KT 10SM CLR 04/M01 A3035 RMK AO2 T00391006
KLHB 100215Z AUTO 00000KT 10SM CLR 06/00 A3033 RMK AO2 T00571003
KLHB 100155Z AUTO 00000KT 10SM CLR 06/M01 A3032 RMK AO2 T00621010
KLHB 100135Z AUTO 00000KT 10SM CLR 07/00 A3031 RMK AO2 T00651005